createdAt,value
2023-02-09T00:02:25.128Z,3.45
2023-02-09T00:05:11.752Z,3.29
2023-02-09T00:07:57.536Z,3.18
2023-02-09T00:10:42.943Z,3.11
2023-02-09T00:13:28.711Z,3.06
2023-02-09T00:16:14.150Z,3.03
2023-02-09T00:18:59.738Z,2.95
2023-02-09T00:21:45.162Z,2.79
2023-02-09T00:24:30.390Z,2.64
2023-02-09T00:27:16.146Z,2.52
2023-02-09T00:30:01.934Z,2.45
2023-02-09T00:32:47.709Z,2.39
2023-02-09T00:35:33.303Z,2.34
2023-02-09T00:38:18.573Z,2.40
2023-02-09T00:41:06.010Z,2.42
2023-02-09T00:43:51.332Z,2.38
2023-02-09T00:46:36.617Z,2.24
2023-02-09T00:49:22.008Z,2.15
2023-02-09T00:52:09.755Z,2.10
2023-02-09T00:54:55.250Z,2.06
2023-02-09T00:57:40.692Z,2.11
2023-02-09T01:00:26.450Z,2.05
2023-02-09T01:03:12.314Z,2.01
2023-02-09T01:05:59.289Z,2.00
2023-02-09T01:08:44.850Z,1.96
2023-02-09T01:11:31.026Z,1.95
2023-02-09T01:14:17.417Z,1.89
2023-02-09T01:17:02.842Z,1.84
2023-02-09T01:19:52.858Z,1.81
2023-02-09T01:22:39.265Z,1.74
2023-02-09T01:25:24.546Z,1.72
2023-02-09T01:28:10.092Z,1.70
2023-02-09T01:30:55.500Z,1.70
2023-02-09T01:33:41.113Z,1.67
2023-02-09T01:36:27.446Z,1.69
2023-02-09T01:39:14.172Z,1.67
2023-02-09T01:41:59.766Z,1.58
2023-02-09T01:44:45.364Z,1.55
2023-02-09T01:47:32.485Z,1.51
2023-02-09T01:50:18.588Z,1.45
2023-02-09T01:53:04.453Z,1.38
2023-02-09T01:56:00.352Z,1.31
2023-02-09T01:58:46.892Z,1.24
2023-02-09T02:01:32.751Z,1.17
2023-02-09T02:04:19.154Z,1.20
2023-02-09T02:07:27.339Z,1.17
2023-02-09T02:10:13.135Z,1.15
2023-02-09T02:13:01.213Z,1.19
2023-02-09T02:16:23.992Z,1.17
2023-02-09T02:19:28.014Z,1.18
2023-02-09T02:23:03.775Z,1.21
2023-02-09T02:26:28.217Z,1.22
2023-02-09T02:29:19.882Z,1.24
2023-02-09T02:32:20.299Z,1.23
2023-02-09T02:35:14.749Z,1.25
2023-02-09T02:38:03.461Z,1.23
2023-02-09T02:40:58.000Z,1.21
2023-02-09T02:44:05.832Z,1.24
2023-02-09T02:46:55.248Z,1.24
2023-02-09T02:49:51.758Z,1.27
2023-02-09T02:52:40.192Z,1.22
2023-02-09T02:55:30.456Z,1.20
2023-02-09T02:58:20.495Z,1.14
2023-02-09T03:01:11.292Z,1.14
2023-02-09T03:03:58.543Z,1.11
2023-02-09T03:06:43.830Z,1.09
2023-02-09T03:09:29.221Z,1.06
2023-02-09T03:12:38.532Z,1.03
2023-02-09T03:15:45.197Z,0.97
2023-02-09T03:18:30.417Z,0.95
2023-02-09T03:21:40.102Z,0.94
2023-02-09T03:24:32.610Z,0.94
2023-02-09T03:27:47.914Z,0.94
2023-02-09T03:30:35.714Z,0.91
2023-02-09T03:33:24.643Z,0.87
2023-02-09T03:36:16.841Z,0.83
2023-02-09T03:39:02.607Z,0.84
2023-02-09T03:41:48.275Z,0.79
2023-02-09T03:44:33.702Z,0.71
2023-02-09T03:47:18.975Z,0.65
2023-02-09T03:50:06.876Z,0.62
2023-02-09T03:52:52.168Z,0.55
2023-02-09T03:55:37.648Z,0.56
2023-02-09T03:58:23.022Z,0.52
2023-02-09T04:01:10.692Z,0.55
2023-02-09T04:03:56.134Z,0.55
2023-02-09T04:06:41.551Z,0.55
2023-02-09T04:09:27.888Z,0.50
2023-02-09T04:12:13.307Z,0.48
2023-02-09T04:14:58.494Z,0.45
2023-02-09T04:17:44.065Z,0.44
2023-02-09T04:20:29.483Z,0.42
2023-02-09T04:23:15.477Z,0.39
2023-02-09T04:26:01.189Z,0.38
2023-02-09T04:28:46.475Z,0.34
2023-02-09T04:31:32.223Z,0.32
2023-02-09T04:34:17.711Z,0.38
2023-02-09T04:37:02.856Z,0.41
2023-02-09T04:39:48.163Z,0.37
2023-02-09T04:42:33.426Z,0.35
2023-02-09T04:45:19.206Z,0.37
2023-02-09T04:48:05.478Z,0.39
2023-02-09T04:50:51.585Z,0.38
2023-02-09T04:53:37.994Z,0.38
2023-02-09T04:56:23.630Z,0.40
2023-02-09T04:59:28.455Z,0.38
2023-02-09T05:02:14.136Z,0.38
2023-02-09T05:04:59.462Z,0.39
2023-02-09T05:07:44.814Z,0.36
2023-02-09T05:10:30.183Z,0.38
2023-02-09T05:13:15.451Z,0.37
2023-02-09T05:16:05.763Z,0.36
2023-02-09T05:18:51.434Z,0.33
2023-02-09T05:21:36.716Z,0.28
2023-02-09T05:24:22.086Z,0.23
2023-02-09T05:27:07.408Z,0.17
2023-02-09T05:29:52.923Z,0.15
2023-02-09T05:32:38.236Z,0.10
2023-02-09T05:35:23.698Z,0.08
2023-02-09T05:38:09.335Z,0.07
2023-02-09T05:40:54.526Z,0.03
2023-02-09T05:43:39.916Z,0.02
2023-02-09T05:46:25.274Z,0.01
2023-02-09T05:49:10.554Z,-0.01
2023-02-09T05:51:56.038Z,-0.04
2023-02-09T05:54:41.540Z,-0.06
2023-02-09T05:57:26.839Z,-0.09
2023-02-09T06:00:13.096Z,-0.08
2023-02-09T06:02:59.079Z,-0.10
2023-02-09T06:05:45.962Z,-0.13
2023-02-09T06:08:31.389Z,-0.22
2023-02-09T06:11:17.102Z,-0.27
2023-02-09T06:14:02.429Z,-0.26
2023-02-09T06:16:47.933Z,-0.27
2023-02-09T06:19:33.373Z,-0.31
2023-02-09T06:22:18.614Z,-0.34
2023-02-09T06:25:04.472Z,-0.32
2023-02-09T06:27:50.071Z,-0.34
2023-02-09T06:30:35.299Z,-0.37
2023-02-09T06:33:20.919Z,-0.33
2023-02-09T06:36:07.789Z,-0.27
2023-02-09T06:38:53.392Z,-0.25
2023-02-09T06:41:38.702Z,-0.27
2023-02-09T06:44:23.975Z,-0.32
2023-02-09T06:47:09.495Z,-0.32
2023-02-09T06:49:55.097Z,-0.29
2023-02-09T06:52:40.402Z,-0.31
2023-02-09T06:55:26.245Z,-0.29
2023-02-09T06:58:11.607Z,-0.28
2023-02-09T07:01:04.683Z,-0.23
2023-02-09T07:03:50.509Z,-0.23
2023-02-09T07:06:35.653Z,-0.22
2023-02-09T07:09:21.055Z,-0.18
2023-02-09T07:12:06.850Z,-0.16
2023-02-09T07:14:52.407Z,-0.11
2023-02-09T07:17:39.598Z,-0.08
2023-02-09T07:20:24.841Z,-0.09
2023-02-09T07:23:10.090Z,-0.04
2023-02-09T07:25:55.730Z,-0.06
2023-02-09T07:28:42.412Z,-0.08
2023-02-09T07:31:27.828Z,-0.05
2023-02-09T07:34:13.576Z,-0.03
2023-02-09T07:36:59.048Z,-0.06
2023-02-09T07:39:44.778Z,-0.08
2023-02-09T07:42:30.647Z,-0.11
2023-02-09T07:45:20.128Z,-0.14
2023-02-09T07:48:05.693Z,-0.14
2023-02-09T07:50:52.006Z,-0.12
2023-02-09T07:53:37.541Z,-0.13
2023-02-09T07:56:23.997Z,-0.11
2023-02-09T07:59:10.627Z,-0.10
2023-02-09T08:01:56.383Z,-0.11
2023-02-09T08:04:43.616Z,-0.13
2023-02-09T08:07:29.438Z,-0.07
2023-02-09T08:10:16.766Z,0.00
2023-02-09T08:13:03.624Z,0.04
2023-02-09T08:15:55.788Z,0.12
2023-02-09T08:18:50.360Z,0.19
2023-02-09T08:21:39.248Z,0.26
2023-02-09T08:24:24.424Z,0.36
2023-02-09T08:27:10.807Z,0.43
2023-02-09T08:29:57.587Z,0.49
2023-02-09T08:32:43.268Z,0.57
2023-02-09T08:35:30.651Z,0.65
2023-02-09T08:38:16.040Z,0.76
2023-02-09T08:41:13.872Z,0.91
2023-02-09T08:43:59.421Z,1.00
2023-02-09T08:46:44.935Z,1.07
2023-02-09T08:49:30.776Z,1.10
2023-02-09T08:52:16.152Z,1.12
2023-02-09T08:55:02.169Z,1.06
2023-02-09T08:57:47.358Z,0.99
2023-02-09T09:00:32.624Z,0.93
2023-02-09T09:03:18.089Z,0.86
2023-02-09T09:06:06.030Z,0.76
2023-02-09T09:08:51.741Z,0.79
2023-02-09T09:11:37.331Z,0.94
2023-02-09T09:14:22.677Z,1.09
2023-02-09T09:17:08.401Z,1.24
2023-02-09T09:19:55.976Z,1.33
2023-02-09T09:22:41.593Z,1.48
2023-02-09T09:25:27.111Z,1.60
2023-02-09T09:28:12.789Z,1.72
2023-02-09T09:31:05.857Z,1.80
2023-02-09T09:33:51.348Z,1.88
2023-02-09T09:36:36.705Z,1.98
2023-02-09T09:39:22.075Z,2.11
2023-02-09T09:42:20.662Z,2.25
2023-02-09T09:45:12.598Z,2.39
2023-02-09T09:47:58.068Z,2.58
2023-02-09T09:50:44.254Z,2.74
2023-02-09T09:53:33.517Z,2.87
2023-02-09T09:56:21.392Z,2.99
2023-02-09T09:59:15.736Z,3.19
2023-02-09T10:02:16.947Z,3.33
2023-02-09T10:05:19.222Z,3.47
2023-02-09T10:08:10.724Z,3.61
2023-02-09T10:11:10.036Z,3.75
2023-02-09T10:13:57.402Z,3.93
2023-02-09T10:16:44.803Z,4.07
2023-02-09T10:19:30.775Z,4.16
2023-02-09T10:22:20.894Z,4.27
2023-02-09T10:25:39.154Z,4.33
2023-02-09T10:28:28.020Z,4.35
2023-02-09T10:31:25.444Z,4.39
2023-02-09T10:34:18.072Z,4.46
2023-02-09T10:37:15.863Z,4.54
2023-02-09T10:40:15.927Z,4.61
2023-02-09T10:43:04.274Z,4.66
2023-02-09T10:45:59.567Z,4.70
2023-02-09T10:48:47.159Z,4.76
2023-02-09T10:51:33.716Z,4.85
2023-02-09T10:54:21.452Z,4.90
2023-02-09T10:57:28.578Z,4.95
2023-02-09T11:00:17.035Z,5.04
2023-02-09T11:03:02.258Z,5.11
2023-02-09T11:06:12.124Z,5.19
2023-02-09T11:09:14.356Z,5.29
2023-02-09T11:12:00.906Z,5.36
2023-02-09T11:14:46.861Z,5.42
2023-02-09T11:17:40.196Z,5.48
2023-02-09T11:20:30.899Z,5.52
2023-02-09T11:23:43.111Z,5.55
2023-02-09T11:26:51.010Z,5.59
2023-02-09T11:29:49.506Z,5.64
2023-02-09T11:32:43.904Z,5.70
2023-02-09T11:35:51.553Z,5.73
2023-02-09T11:38:59.524Z,5.80
2023-02-09T11:42:26.219Z,5.90
2023-02-09T11:45:23.436Z,5.98
2023-02-09T11:48:24.523Z,5.94
2023-02-09T11:51:13.161Z,5.91
2023-02-09T11:54:33.478Z,5.90
2023-02-09T11:57:31.781Z,5.93
2023-02-09T12:00:23.177Z,5.95
2023-02-09T12:03:12.420Z,6.01
2023-02-09T12:05:58.214Z,6.04
2023-02-09T12:09:03.810Z,6.12
2023-02-09T12:12:04.480Z,6.23
2023-02-09T12:15:00.536Z,6.26
2023-02-09T12:17:54.950Z,6.34
2023-02-09T12:20:40.211Z,6.47
2023-02-09T12:23:34.784Z,6.51
2023-02-09T12:26:42.252Z,6.58
2023-02-09T12:29:40.403Z,6.59
2023-02-09T12:32:41.895Z,6.64
2023-02-09T12:35:38.792Z,6.63
2023-02-09T12:38:24.528Z,6.73
2023-02-09T12:41:12.865Z,6.76
2023-02-09T12:44:10.852Z,6.86
2023-02-09T12:46:57.989Z,6.83
2023-02-09T12:49:44.580Z,6.84
2023-02-09T12:52:30.219Z,6.89
2023-02-09T12:55:22.226Z,6.98
2023-02-09T12:58:26.436Z,7.10
2023-02-09T13:01:16.050Z,7.19
2023-02-09T13:04:05.492Z,7.28
2023-02-09T13:06:56.922Z,7.33
2023-02-09T13:09:43.332Z,7.41
2023-02-09T13:12:42.986Z,7.51
2023-02-09T13:15:45.238Z,7.53
2023-02-09T13:18:49.364Z,7.59
2023-02-09T13:22:16.862Z,7.52
2023-02-09T13:25:32.434Z,7.40
2023-02-09T13:28:22.707Z,7.34
2023-02-09T13:31:30.939Z,7.22
2023-02-09T13:34:40.059Z,7.19
2023-02-09T13:37:34.568Z,7.29
2023-02-09T13:40:24.526Z,7.44
2023-02-09T13:43:12.786Z,7.52
2023-02-09T13:46:00.126Z,7.53
2023-02-09T13:48:45.804Z,7.59
2023-02-09T13:51:31.100Z,7.58
2023-02-09T13:54:20.679Z,7.52
2023-02-09T13:57:28.796Z,7.50
2023-02-09T14:00:20.561Z,7.51
2023-02-09T14:03:12.485Z,7.50
2023-02-09T14:06:22.118Z,7.50
2023-02-09T14:09:15.919Z,7.59
2023-02-09T14:12:05.803Z,7.58
2023-02-09T14:15:15.762Z,7.61
2023-02-09T14:18:01.246Z,7.62
2023-02-09T14:20:59.479Z,7.61
2023-02-09T14:23:49.412Z,7.65
2023-02-09T14:26:48.824Z,7.65
2023-02-09T14:29:38.323Z,7.81
2023-02-09T14:32:33.114Z,7.88
2023-02-09T14:35:24.817Z,7.95
2023-02-09T14:38:37.121Z,7.98
2023-02-09T14:41:31.776Z,8.02
2023-02-09T14:44:22.103Z,7.96
2023-02-09T14:47:27.652Z,7.83
2023-02-09T14:50:19.341Z,7.84
2023-02-09T14:53:08.181Z,7.86
2023-02-09T14:55:54.987Z,8.08
2023-02-09T14:58:40.371Z,8.33
2023-02-09T15:01:25.804Z,8.57
2023-02-09T15:04:11.539Z,8.69
2023-02-09T15:07:01.861Z,8.71
2023-02-09T15:09:47.874Z,8.52
2023-02-09T15:12:34.008Z,8.28
2023-02-09T15:15:21.345Z,7.97
2023-02-09T15:18:07.694Z,7.85
2023-02-09T15:20:53.598Z,7.83
2023-02-09T15:23:39.106Z,7.86
2023-02-09T15:26:26.910Z,7.80
2023-02-09T15:29:15.334Z,7.74
2023-02-09T15:32:00.657Z,7.60
2023-02-09T15:34:46.892Z,7.49
2023-02-09T15:37:35.796Z,7.39
2023-02-09T15:40:45.720Z,7.37
2023-02-09T15:43:50.156Z,7.31
2023-02-09T15:46:54.374Z,7.16
2023-02-09T15:49:39.962Z,7.11
2023-02-09T15:52:25.516Z,7.10
2023-02-09T15:55:18.789Z,7.13
2023-02-09T15:58:04.568Z,7.16
2023-02-09T16:00:49.899Z,7.05
2023-02-09T16:03:35.460Z,6.99
2023-02-09T16:06:26.850Z,6.98
2023-02-09T16:09:19.446Z,6.96
2023-02-09T16:12:09.991Z,6.98
2023-02-09T16:14:55.772Z,6.97
2023-02-09T16:17:41.849Z,6.94
2023-02-09T16:20:28.183Z,6.93
2023-02-09T16:23:20.811Z,6.89
2023-02-09T16:26:06.626Z,6.88
2023-02-09T16:28:53.467Z,6.85
2023-02-09T16:31:38.692Z,6.81
2023-02-09T16:34:24.113Z,6.80
2023-02-09T16:37:13.505Z,6.76
2023-02-09T16:40:01.046Z,6.75
2023-02-09T16:42:48.552Z,6.71
2023-02-09T16:45:36.711Z,6.67
2023-02-09T16:48:28.257Z,6.64
2023-02-09T16:51:15.766Z,6.60
2023-02-09T16:54:01.306Z,6.57
2023-02-09T16:56:54.172Z,6.54
2023-02-09T16:59:40.233Z,6.49
2023-02-09T17:02:50.179Z,6.48
2023-02-09T17:05:37.204Z,6.45
2023-02-09T17:08:28.293Z,6.41
2023-02-09T17:11:23.575Z,6.38
2023-02-09T17:14:08.952Z,6.35
2023-02-09T17:16:54.433Z,6.34
2023-02-09T17:19:47.798Z,6.31
2023-02-09T17:22:33.688Z,6.28
2023-02-09T17:25:21.544Z,6.25
2023-02-09T17:28:06.732Z,6.24
2023-02-09T17:30:57.689Z,6.21
2023-02-09T17:33:46.010Z,6.18
2023-02-09T17:36:31.878Z,6.16
2023-02-09T17:39:19.068Z,6.14
2023-02-09T17:42:04.596Z,6.11
2023-02-09T17:44:51.436Z,6.09
2023-02-09T17:47:36.859Z,6.05
2023-02-09T17:50:24.369Z,6.04
2023-02-09T17:53:15.949Z,6.00
2023-02-09T17:56:02.679Z,6.00
2023-02-09T17:58:48.320Z,5.98
2023-02-09T18:01:38.916Z,5.94
2023-02-09T18:04:28.783Z,5.90
2023-02-09T18:07:20.208Z,5.88
2023-02-09T18:10:06.637Z,5.85
2023-02-09T18:12:52.710Z,5.84
2023-02-09T18:15:40.626Z,5.81
2023-02-09T18:18:26.099Z,5.79
2023-02-09T18:21:14.611Z,5.77
2023-02-09T18:24:00.134Z,5.76
2023-02-09T18:26:47.860Z,5.76
2023-02-09T18:29:33.211Z,5.77
2023-02-09T18:32:18.615Z,5.76
2023-02-09T18:35:04.849Z,5.76
2023-02-09T18:37:50.559Z,5.74
2023-02-09T18:40:37.470Z,5.73
2023-02-09T18:43:23.135Z,5.73
2023-02-09T18:46:13.243Z,5.72
2023-02-09T18:48:58.616Z,5.71
2023-02-09T18:51:43.888Z,5.70
2023-02-09T18:54:31.253Z,5.67
2023-02-09T18:57:16.448Z,5.67
2023-02-09T19:00:05.939Z,5.68
2023-02-09T19:02:54.217Z,5.66
2023-02-09T19:05:41.239Z,5.64
2023-02-09T19:08:26.598Z,5.63
2023-02-09T19:11:20.229Z,5.63
2023-02-09T19:14:24.422Z,5.64
2023-02-09T19:17:15.702Z,5.61
2023-02-09T19:20:04.337Z,5.60
2023-02-09T19:22:51.674Z,5.58
2023-02-09T19:25:37.065Z,5.55
2023-02-09T19:28:22.687Z,5.52
2023-02-09T19:31:15.576Z,5.49
2023-02-09T19:34:01.398Z,5.48
2023-02-09T19:36:46.885Z,5.43
2023-02-09T19:39:34.981Z,5.38
2023-02-09T19:42:21.732Z,5.29
2023-02-09T19:45:07.406Z,5.17
2023-02-09T19:47:53.104Z,5.07
2023-02-09T19:50:38.664Z,4.98
2023-02-09T19:53:25.140Z,4.94
2023-02-09T19:56:16.938Z,4.90
2023-02-09T19:59:02.376Z,4.87
2023-02-09T20:01:47.745Z,4.83
2023-02-09T20:04:34.491Z,4.77
2023-02-09T20:07:19.862Z,4.80
2023-02-09T20:10:05.483Z,4.80
2023-02-09T20:12:51.145Z,4.86
2023-02-09T20:15:41.310Z,4.90
2023-02-09T20:18:26.845Z,4.93
2023-02-09T20:21:12.916Z,4.94
2023-02-09T20:23:58.648Z,4.98
2023-02-09T20:26:46.065Z,5.00
2023-02-09T20:29:31.742Z,5.02
2023-02-09T20:32:17.244Z,5.04
2023-02-09T20:35:05.154Z,5.03
2023-02-09T20:37:52.873Z,5.04
2023-02-09T20:40:42.834Z,5.05
2023-02-09T20:43:47.291Z,5.05
2023-02-09T20:46:52.453Z,5.06
2023-02-09T20:49:39.619Z,5.04
2023-02-09T20:52:25.109Z,5.05
2023-02-09T20:55:10.564Z,5.05
2023-02-09T20:57:55.870Z,5.03
2023-02-09T21:00:42.707Z,5.01
2023-02-09T21:03:28.539Z,4.98
2023-02-09T21:06:13.914Z,4.95
2023-02-09T21:08:59.227Z,4.93
2023-02-09T21:11:44.978Z,4.92
2023-02-09T21:14:41.769Z,4.84
2023-02-09T21:17:28.230Z,4.75
2023-02-09T21:20:17.666Z,4.70
2023-02-09T21:23:03.709Z,4.63
2023-02-09T21:25:49.000Z,4.59
2023-02-09T21:28:35.872Z,4.53
2023-02-09T21:31:23.463Z,4.48
2023-02-09T21:34:13.624Z,4.46
2023-02-09T21:36:59.045Z,4.38
2023-02-09T21:39:44.625Z,4.33
2023-02-09T21:42:31.475Z,4.26
2023-02-09T21:45:17.105Z,4.19
2023-02-09T21:48:02.684Z,4.11
2023-02-09T21:50:48.188Z,4.01
2023-02-09T21:53:33.474Z,3.87
2023-02-09T21:56:19.352Z,3.73
2023-02-09T21:59:04.762Z,3.61
2023-02-09T22:01:50.111Z,3.53
2023-02-09T22:04:39.738Z,3.51
2023-02-09T22:07:25.346Z,3.57
2023-02-09T22:10:11.530Z,3.58
2023-02-09T22:12:56.861Z,3.59
2023-02-09T22:15:43.350Z,3.55
2023-02-09T22:18:28.712Z,3.45
2023-02-09T22:21:14.372Z,3.38
2023-02-09T22:23:59.818Z,3.24
2023-02-09T22:26:46.510Z,3.09
2023-02-09T22:29:33.431Z,3.00
2023-02-09T22:32:20.502Z,2.90
2023-02-09T22:35:06.417Z,2.82
2023-02-09T22:37:51.763Z,2.69
2023-02-09T22:40:37.055Z,2.52
2023-02-09T22:43:22.481Z,2.43
2023-02-09T22:46:07.929Z,2.41
2023-02-09T22:49:02.845Z,2.49
2023-02-09T22:51:49.719Z,2.45
2023-02-09T22:54:35.269Z,2.32
2023-02-09T22:57:20.537Z,2.33
2023-02-09T23:00:09.982Z,2.19
2023-02-09T23:02:56.109Z,2.17
2023-02-09T23:05:41.772Z,2.13
2023-02-09T23:08:27.049Z,2.18
2023-02-09T23:11:17.435Z,2.18
2023-02-09T23:14:09.576Z,2.06
2023-02-09T23:16:55.819Z,2.07
2023-02-09T23:19:41.082Z,1.99
2023-02-09T23:22:26.345Z,2.06
2023-02-09T23:25:11.460Z,2.10
2023-02-09T23:27:57.085Z,2.18
2023-02-09T23:30:43.966Z,2.23
2023-02-09T23:33:29.525Z,2.26
2023-02-09T23:36:19.296Z,2.30
2023-02-09T23:39:06.437Z,2.27
2023-02-09T23:41:51.940Z,2.24
2023-02-09T23:44:37.448Z,2.22
2023-02-09T23:47:22.889Z,2.22
2023-02-09T23:50:08.479Z,2.12
2023-02-09T23:52:53.957Z,2.04
2023-02-09T23:55:39.178Z,1.96
2023-02-09T23:58:24.863Z,2.02
